Date,TemperatureHighF,TemperatureAvgF,TemperatureLowF,DewpointHighF,DewpointAvgF,DewpointLowF,HumidityHigh,HumidityAvg,HumidityLow,PressureMaxIn,PressureMinIn,WindSpeedMaxMPH,WindSpeedAvgMPH,GustSpeedMaxMPH,PrecipitationSumIn
2013-1-1,31,21,10,20,9,0,76,60,44,29.18,29.03,11,1,11,0.00
2013-1-2,26,21,12,17,13,6,80,72,60,29.21,29.09,10,1,10,0.00
2013-1-3,28,22,13,25,15,4,88,75,64,29.18,29.06,12,3,13,0.00
2013-1-4,34,27,21,23,18,14,85,69,51,29.21,29.03,18,5,18,0.00
2013-1-5,37,25,13,30,20,11,98,82,55,29.29,29.03,14,2,14,0.00
2013-1-6,35,33,30,32,29,24,96,87,75,29.29,28.94,11,2,11,0.00
2013-1-7,39,31,26,24,22,19,79,70,51,29.38,29.18,16,4,16,0.00
2013-1-8,38,28,19,26,22,17,97,78,56,29.26,29.18,10,2,10,0.00
2013-1-9,48,37,27,34,26,19,94,66,39,29.44,29.06,22,5,22,0.00
2013-1-10,47,32,21,33,25,19,96,77,46,29.59,29.21,11,2,11,0.00
2013-1-11,53,42,34,52,41,33,98,96,83,29.21,28.79,14,4,14,0.00
2013-1-12,58,48,42,50,45,41,98,92,69,28.97,28.88,10,1,10,0.00
2013-1-13,47,37,29,46,36,26,98,97,87,29.06,28.76,14,2,14,0.00
2013-1-14,29,23,16,26,16,12,91,75,60,29.44,29.06,8,1,8,0.00
2013-1-15,33,21,11,22,15,9,97,78,54,29.44,29.18,6,0,6,0.00
2013-1-16,39,28,18,26,18,13,95,69,39,29.18,28.82,17,3,17,0.00
2013-1-17,39,29,17,28,17,2,82,61,45,29.32,28.97,15,3,15,0.00
2013-1-18,34,24,13,20,12,3,75,59,44,29.44,29.00,26,4,26,0.00
2013-1-19,48,40,32,33,27,20,68,59,48,29.00,28.61,20,5,20,0.00
2013-1-20,43,42,40,32,25,18,67,52,43,28.61,28.59,34,9,34,0.00
2013-1-21,20,4,2,2,-12,-13,47,47,46,29.12,29.09,10,2,20,0.00
2013-1-22,14,4,-4,-3,-12,-19,47,47,46,29.26,29.12,15,3,15,0.00
2013-1-23,19,10,1,6,-4,-15,64,53,46,29.26,29.09,13,2,13,0.00
2013-1-24,22,12,6,6,-2,-9,64,53,40,29.59,29.12,11,2,11,0.00
2013-1-25,24,17,11,15,6,-7,86,63,44,29.50,29.03,11,2,11,0.00
2013-1-26,29,21,14,16,12,8,89,71,48,29.44,29.06,9,1,9,0.00
2013-1-27,31,21,9,28,13,4,97,74,49,29.47,29.12,15,3,15,0.00
2013-1-28,44,36,29,44,35,28,98,98,95,29.15,28.88,10,1,10,0.00
2013-1-29,56,45,34,56,44,33,98,98,98,29.03,28.50,17,4,17,0.00
2013-1-30,59,48,32,59,47,27,98,96,85,28.50,28.17,27,4,27,0.00
2013-1-31,31,22,14,27,12,5,85,67,51,28.88,28.29,0,0,0,0.00